Time;durP1;ratioP1;P1;durP2;ratioP2;P2;SDS_P1;SDS_P2;PMS_P1;PMS_P2;Temp;Humidity;BMP_temperature;BMP_pressure;BME280_temperature;BME280_humidity;BME280_pressure;Samples;Min_cycle;Max_cycle;Signal;HPM_P1;HPM_P2
2021/08/22 00:00:06;;;;;;;5.35;3.30;;;;;;;14.99;97.51;101157.69;5012719;28;20045;-83
2021/08/22 00:02:33;;;;;;;4.38;3.15;;;;;;;15.02;95.75;101154.03;5014923;28;20579;-82
2021/08/22 00:05:00;;;;;;;5.22;3.13;;;;;;;14.91;98.24;101149.06;4998236;28;20095;-82
2021/08/22 00:07:26;;;;;;;4.20;3.30;;;;;;;14.92;99.05;101154.31;4996684;28;20049;-82
2021/08/22 00:09:53;;;;;;;5.70;3.03;;;;;;;14.96;100.00;101148.91;4998422;28;20044;-82
2021/08/22 00:12:20;;;;;;;4.80;3.70;;;;;;;14.79;100.00;101149.41;5007614;28;20044;-83
2021/08/22 00:14:46;;;;;;;3.55;3.20;;;;;;;14.78;100.00;101150.34;4998416;28;20155;-82
2021/08/22 00:17:13;;;;;;;4.18;3.35;;;;;;;14.88;100.00;101152.69;5012293;28;20482;-82
2021/08/22 00:19:40;;;;;;;3.83;3.15;;;;;;;14.79;100.00;101158.25;5030451;28;20045;-82
2021/08/22 00:22:06;;;;;;;4.22;3.75;;;;;;;14.91;100.00;101157.91;4998956;28;20048;-82
2021/08/22 00:24:33;;;;;;;3.80;3.05;;;;;;;14.79;100.00;101158.25;5025915;28;20045;-82
2021/08/22 00:27:00;;;;;;;4.75;3.20;;;;;;;14.92;100.00;101148.13;5004673;28;20052;-82
2021/08/22 00:29:26;;;;;;;4.03;3.40;;;;;;;14.83;99.45;101149.28;5013613;28;20049;-83
2021/08/22 00:31:53;;;;;;;4.75;3.20;;;;;;;14.76;100.00;101141.53;5029531;28;20056;-82
2021/08/22 00:34:20;;;;;;;4.88;3.10;;;;;;;14.87;100.00;101140.28;5014114;28;20068;-83
2021/08/22 00:36:46;;;;;;;6.20;3.58;;;;;;;14.89;100.00;101134.94;5011465;28;20046;-83
2021/08/22 00:39:13;;;;;;;5.18;3.05;;;;;;;14.83;100.00;101135.13;4988935;28;20494;-82
2021/08/22 00:41:41;;;;;;;4.00;3.10;;;;;;;14.87;100.00;101132.31;5003339;28;20506;-83
2021/08/22 00:44:07;;;;;;;4.18;3.20;;;;;;;14.89;96.25;101124.31;4998245;28;20045;-82
2021/08/22 00:46:35;;;;;;;4.78;3.22;;;;;;;14.81;99.34;101135.19;5013075;28;20037;-83
2021/08/22 00:49:04;;;;;;;5.65;3.28;;;;;;;14.75;99.89;101118.53;4993644;28;20041;-82
2021/08/22 00:51:31;;;;;;;3.78;3.03;;;;;;;14.80;99.82;101116.59;5029088;28;20107;-82
2021/08/22 00:53:58;;;;;;;3.75;2.92;;;;;;;14.69;100.00;101121.34;4997835;28;20033;-83
2021/08/22 00:56:24;;;;;;;4.15;2.88;;;;;;;14.68;100.00;101123.16;5011153;28;20100;-82
2021/08/22 00:58:51;;;;;;;4.25;2.95;;;;;;;14.70;99.85;101120.44;4999835;28;20048;-82
2021/08/22 01:01:21;;;;;;;4.68;3.10;;;;;;;14.57;100.00;101120.81;5018488;28;20037;-82
2021/08/22 01:04:00;;;;;;;5.28;3.40;;;;;;;14.64;100.00;101130.34;5016458;28;20072;-83
2021/08/22 01:06:31;;;;;;;4.10;2.97;;;;;;;14.74;97.87;101122.97;5022990;28;20037;-83
2021/08/22 01:09:07;;;;;;;3.60;2.92;;;;;;;14.68;98.94;101116.97;5002064;28;20045;-82
2021/08/22 01:11:36;;;;;;;5.13;3.33;;;;;;;14.62;99.55;101121.53;5005035;28;20044;-83
2021/08/22 01:14:05;;;;;;;3.35;2.65;;;;;;;14.59;99.59;101118.09;4996349;28;20079;-82
2021/08/22 01:16:34;;;;;;;4.05;3.30;;;;;;;14.53;100.00;101115.63;5003533;28;20460;-82
2021/08/22 01:19:14;;;;;;;5.18;3.55;;;;;;;14.50;100.00;101111.28;5026811;28;20041;-82
2021/08/22 01:21:42;;;;;;;3.90;3.03;;;;;;;14.47;100.00;101110.50;5001580;28;20048;-82
2021/08/22 01:24:09;;;;;;;4.47;3.38;;;;;;;14.39;100.00;101115.13;5006592;28;20122;-82
2021/08/22 01:26:38;;;;;;;4.72;3.40;;;;;;;14.32;100.00;101112.66;5017995;28;20048;-82
2021/08/22 01:29:05;;;;;;;3.67;2.60;;;;;;;14.36;100.00;101111.63;5014449;28;20629;-82
2021/08/22 01:31:45;;;;;;;4.32;3.10;;;;;;;14.46;100.00;101124.69;5019134;28;20045;-82
2021/08/22 01:34:14;;;;;;;3.47;3.10;;;;;;;14.33;100.00;101119.72;4997520;28;20049;-82
2021/08/22 01:36:43;;;;;;;3.95;2.92;;;;;;;14.22;100.00;101113.84;5018239;28;20437;-82
2021/08/22 01:39:09;;;;;;;4.70;2.72;;;;;;;14.27;100.00;101106.59;5020294;28;20064;-82
2021/08/22 01:41:37;;;;;;;4.00;3.20;;;;;;;14.38;100.00;101098.31;5029599;28;20032;-82
2021/08/22 01:44:07;;;;;;;4.95;3.03;;;;;;;14.28;100.00;101102.13;4999086;28;20049;-83
2021/08/22 01:46:36;;;;;;;5.40;3.55;;;;;;;14.26;100.00;101101.31;5013859;28;20045;-83
2021/08/22 01:49:06;;;;;;;4.45;3.40;;;;;;;14.25;100.00;101104.91;4995518;28;20449;-83
2021/08/22 01:51:32;;;;;;;6.22;3.00;;;;;;;14.28;100.00;101091.50;4998228;28;20049;-83
2021/08/22 01:54:02;;;;;;;5.88;3.60;;;;;;;14.25;100.00;101092.47;5014425;28;20457;-82
2021/08/22 01:56:30;;;;;;;5.18;3.33;;;;;;;14.14;100.00;101088.41;5017395;28;20040;-83
2021/08/22 01:58:57;;;;;;;5.47;3.08;;;;;;;14.20;100.00;101085.53;5026544;28;20046;-83
2021/08/22 02:01:26;;;;;;;5.47;3.60;;;;;;;14.13;100.00;101089.31;5006386;28;20044;-82
2021/08/22 02:04:01;;;;;;;5.05;3.58;;;;;;;14.01;100.00;101083.41;5018242;28;20136;-83
2021/08/22 02:06:37;;;;;;;4.70;2.90;;;;;;;13.96;100.00;101079.16;5018482;28;20106;-83
2021/08/22 02:09:06;;;;;;;4.25;2.95;;;;;;;13.95;100.00;101080.03;5000633;28;20041;-83
2021/08/22 02:11:50;;;;;;;4.63;3.03;;;;;;;13.95;100.00;101077.38;5000699;28;20045;-83
2021/08/22 02:14:17;;;;;;;4.10;3.05;;;;;;;13.91;100.00;101073.97;5015106;28;20052;-82
2021/08/22 02:16:49;;;;;;;6.28;4.00;;;;;;;13.88;100.00;101081.16;4998727;28;20046;-82
2021/08/22 02:19:16;;;;;;;4.35;3.08;;;;;;;13.80;100.00;101079.56;4995740;28;20053;-82
2021/08/22 02:21:44;;;;;;;5.53;3.45;;;;;;;13.77;100.00;101081.41;5004344;28;20052;-82
2021/08/22 02:24:11;;;;;;;5.38;3.85;;;;;;;13.77;100.00;101076.97;4988399;28;20497;-82
2021/08/22 02:26:38;;;;;;;4.47;3.53;;;;;;;13.76;100.00;101074.38;5014824;28;20136;-82
2021/08/22 02:29:05;;;;;;;4.28;3.10;;;;;;;13.77;100.00;101070.78;5016133;28;20036;-82
2021/08/22 02:31:32;;;;;;;4.53;3.38;;;;;;;13.71;100.00;101065.69;5000495;28;20114;-82
2021/08/22 02:33:59;;;;;;;4.20;3.22;;;;;;;13.68;100.00;101061.28;5015056;28;20055;-85
2021/08/22 02:36:27;;;;;;;5.30;3.42;;;;;;;13.70;100.00;101062.13;4998769;28;20037;-84
2021/08/22 02:38:55;;;;;;;4.20;3.45;;;;;;;13.67;100.00;101056.03;4999139;28;20041;-85
2021/08/22 02:41:24;;;;;;;3.10;2.80;;;;;;;13.61;100.00;101053.53;5014926;28;20037;-85
2021/08/22 02:43:54;;;;;;;5.47;3.45;;;;;;;13.62;100.00;101042.91;4994573;28;20041;-84
2021/08/22 02:46:21;;;;;;;6.45;4.93;;;;;;;13.56;100.00;101056.31;5016229;28;20045;-84
2021/08/22 02:48:48;;;;;;;3.70;3.13;;;;;;;13.60;100.00;101041.19;5013845;28;20041;-84
2021/08/22 02:51:18;;;;;;;4.20;3.33;;;;;;;13.60;100.00;101043.81;5000457;28;20045;-85
2021/08/22 02:53:44;;;;;;;6.13;3.83;;;;;;;13.54;100.00;101034.28;5012833;28;20383;-85
2021/08/22 02:56:11;;;;;;;4.65;3.45;;;;;;;13.56;100.00;101036.88;5010408;28;20033;-85
2021/08/22 02:58:38;;;;;;;3.50;3.00;;;;;;;13.53;100.00;101033.38;5000079;28;20045;-85
2021/08/22 03:01:07;;;;;;;6.20;4.18;;;;;;;13.49;100.00;101036.16;4997715;28;20095;-85
2021/08/22 03:03:36;;;;;;;5.07;3.47;;;;;;;13.48;100.00;101037.06;5001518;28;20049;-85
2021/08/22 03:06:04;;;;;;;4.50;3.75;;;;;;;13.38;100.00;101028.50;5015111;28;20264;-85
2021/08/22 03:08:30;;;;;;;4.80;3.47;;;;;;;13.45;100.00;101035.38;5000191;28;20545;-85
2021/08/22 03:10:57;;;;;;;4.93;3.85;;;;;;;13.51;100.00;101029.88;5011571;28;20049;-85
2021/08/22 03:13:24;;;;;;;5.07;3.30;;;;;;;13.38;100.00;101033.78;5023832;28;20041;-85
2021/08/22 03:15:50;;;;;;;6.20;3.25;;;;;;;13.36;100.00;101043.56;5012398;28;20173;-85
2021/08/22 03:18:17;;;;;;;4.03;3.30;;;;;;;13.51;100.00;101042.28;5010962;28;20087;-85
2021/08/22 03:20:44;;;;;;;6.53;3.95;;;;;;;13.48;100.00;101048.56;5003358;28;20102;-85
2021/08/22 03:23:10;;;;;;;6.22;3.30;;;;;;;13.50;100.00;101045.84;5031995;28;20045;-85
2021/08/22 03:25:40;;;;;;;5.97;3.47;;;;;;;13.63;100.00;101043.78;5031851;28;20041;-85
2021/08/22 03:28:10;;;;;;;4.28;3.58;;;;;;;13.58;100.00;101046.53;5003478;28;20133;-85
2021/08/22 03:30:36;;;;;;;5.28;3.47;;;;;;;13.60;100.00;101046.47;4999038;28;20394;-85
2021/08/22 03:33:03;;;;;;;5.10;3.47;;;;;;;13.49;100.00;101052.09;5007412;28;20075;-86
2021/08/22 03:35:30;;;;;;;4.30;3.40;;;;;;;13.53;100.00;101053.72;5000507;28;20033;-85
2021/08/22 03:37:56;;;;;;;6.35;3.65;;;;;;;13.54;100.00;101052.84;5017066;28;20128;-84
2021/08/22 03:40:23;;;;;;;4.65;3.83;;;;;;;13.60;100.00;101043.81;4997732;28;20402;-85
2021/08/22 03:42:50;;;;;;;5.32;3.55;;;;;;;13.62;100.00;101042.91;5013416;28;20544;-86
2021/08/22 03:45:17;;;;;;;4.63;3.10;;;;;;;13.65;100.00;101052.56;5016729;28;20045;-85
2021/08/22 03:47:47;;;;;;;4.88;3.70;;;;;;;13.63;100.00;101038.47;5002893;28;20573;-86
2021/08/22 03:50:13;;;;;;;3.70;3.10;;;;;;;13.67;100.00;101042.75;5034949;28;20041;-85
2021/08/22 03:52:40;;;;;;;5.28;3.22;;;;;;;13.70;100.00;101053.28;5035672;28;20055;-85
2021/08/22 03:55:07;;;;;;;4.95;3.45;;;;;;;13.61;100.00;101053.53;5033145;28;20040;-85
2021/08/22 03:57:36;;;;;;;3.88;3.40;;;;;;;13.70;100.00;101053.28;5000690;28;20053;-84
2021/08/22 04:00:06;;;;;;;6.00;3.50;;;;;;;13.78;100.00;101051.28;5000979;28;20123;-84
2021/08/22 04:02:33;;;;;;;4.95;4.00;;;;;;;13.79;100.00;101047.75;5006746;28;20044;-84
2021/08/22 04:05:01;;;;;;;4.50;3.47;;;;;;;13.76;100.00;101047.81;5012807;28;20041;-85
2021/08/22 04:07:29;;;;;;;3.75;3.35;;;;;;;13.70;100.00;101047.97;5014708;28;20690;-84
2021/08/22 04:09:56;;;;;;;4.80;2.95;;;;;;;13.76;100.00;101051.34;5028605;28;20041;-85
2021/08/22 04:12:27;;;;;;;4.10;3.22;;;;;;;13.70;100.00;101054.16;5011871;28;20041;-85
2021/08/22 04:14:57;;;;;;;4.03;2.97;;;;;;;13.67;100.00;101045.41;4988063;28;20056;-84
2021/08/22 04:17:23;;;;;;;5.45;3.33;;;;;;;13.70;100.00;101045.31;5015006;28;20052;-85
2021/08/22 04:19:50;;;;;;;3.88;3.22;;;;;;;13.74;100.00;101045.22;5015540;28;20048;-85
2021/08/22 04:22:17;;;;;;;3.85;3.08;;;;;;;13.86;100.00;101043.13;5013532;28;20038;-83
2021/08/22 04:24:43;;;;;;;4.38;3.03;;;;;;;13.95;100.00;101040.19;5036602;28;20048;-83
2021/08/22 04:27:10;;;;;;;4.03;3.33;;;;;;;14.00;100.00;101033.84;4997554;28;20045;-84
2021/08/22 04:29:40;;;;;;;3.88;3.53;;;;;;;13.89;100.00;101040.41;5008403;28;20562;-84
2021/08/22 04:32:07;;;;;;;5.32;3.53;;;;;;;13.83;100.00;101033.47;4995090;28;20048;-83
2021/08/22 04:34:41;;;;;;;4.45;2.78;;;;;;;13.89;100.00;101030.63;5011607;28;20092;-83
2021/08/22 04:37:08;;;;;;;4.93;3.25;;;;;;;13.85;100.00;101030.75;5003570;28;20454;-84
2021/08/22 04:39:34;;;;;;;6.70;3.40;;;;;;;13.87;100.00;101023.59;4997155;28;20045;-84
2021/08/22 04:42:01;;;;;;;4.53;2.80;;;;;;;13.92;100.00;101019.91;5013677;28;20572;-84
2021/08/22 04:44:28;;;;;;;4.70;2.85;;;;;;;13.96;100.00;101015.41;5011629;28;20041;-84
2021/08/22 04:46:57;;;;;;;7.07;3.22;;;;;;;13.86;100.00;101017.44;5013833;28;20048;-83
2021/08/22 04:49:27;;;;;;;3.92;2.90;;;;;;;13.83;100.00;101020.19;5005690;28;20038;-83
2021/08/22 04:51:56;;;;;;;5.15;2.97;;;;;;;13.80;100.00;101012.31;4996844;28;20613;-84
2021/08/22 04:54:23;;;;;;;4.88;3.08;;;;;;;13.79;100.00;101022.06;5011637;28;20475;-84
2021/08/22 04:56:50;;;;;;;4.15;3.10;;;;;;;13.91;100.00;101014.66;5013997;28;20070;-83
2021/08/22 04:59:25;;;;;;;4.20;2.92;;;;;;;13.92;100.00;101011.06;5000511;28;20041;-84
2021/08/22 05:01:52;;;;;;;3.35;3.05;;;;;;;13.91;100.00;101015.53;5011521;28;20049;-83
2021/08/22 05:04:23;;;;;;;4.90;3.30;;;;;;;13.95;100.00;101010.97;5010053;28;20192;-84
2021/08/22 05:06:50;;;;;;;5.25;3.08;;;;;;;13.94;100.00;101006.59;5027873;28;20095;-84
2021/08/22 05:09:17;;;;;;;3.15;2.83;;;;;;;13.87;100.00;101021.81;5010477;28;20037;-85
2021/08/22 05:11:46;;;;;;;6.20;3.05;;;;;;;13.88;100.00;101014.75;4999538;28;20061;-84
2021/08/22 05:14:12;;;;;;;4.28;2.85;;;;;;;13.97;100.00;101014.50;4996239;28;20136;-83
2021/08/22 05:16:41;;;;;;;4.22;3.08;;;;;;;13.85;100.00;101022.78;5012096;28;20108;-83
2021/08/22 05:19:08;;;;;;;3.63;3.20;;;;;;;13.84;100.00;101016.59;5012865;28;20107;-82
2021/08/22 05:21:34;;;;;;;3.78;2.50;;;;;;;13.87;100.00;101010.31;4999797;28;20095;-84
2021/08/22 05:24:01;;;;;;;3.90;2.72;;;;;;;13.95;100.00;101010.97;5014961;28;20041;-82
2021/08/22 05:26:28;;;;;;;4.40;2.85;;;;;;;13.94;100.00;101009.25;4998384;28;20087;-83
2021/08/22 05:28:54;;;;;;;5.72;2.80;;;;;;;13.97;100.00;100999.41;5015491;28;20091;-83
2021/08/22 05:31:21;;;;;;;3.55;2.97;;;;;;;13.94;100.00;100994.16;5008345;28;20505;-82
2021/08/22 05:33:48;;;;;;;4.47;2.90;;;;;;;14.01;100.00;100995.75;5016530;28;20041;-82
2021/08/22 05:36:19;;;;;;;3.47;2.92;;;;;;;14.08;100.00;100997.31;4996371;28;20045;-82
2021/08/22 05:38:49;;;;;;;4.22;2.88;;;;;;;14.15;100.00;101002.44;5011318;28;20041;-83
2021/08/22 05:41:18;;;;;;;5.40;2.85;;;;;;;14.25;100.00;101004.78;4988613;28;20042;-83
2021/08/22 05:43:45;;;;;;;4.63;2.90;;;;;;;14.41;99.50;100991.03;5014909;28;20430;-83
2021/08/22 05:46:12;;;;;;;3.47;2.78;;;;;;;14.45;97.84;100993.56;5015462;28;20064;-83
2021/08/22 05:48:39;;;;;;;3.05;2.50;;;;;;;14.42;96.69;100998.06;5002601;28;20041;-83
2021/08/22 05:51:06;;;;;;;4.78;2.92;;;;;;;14.57;98.13;100997.63;5015616;28;20045;-82
2021/08/22 05:53:33;;;;;;;4.43;2.65;;;;;;;14.52;95.22;101005.75;5018022;28;20047;-83
2021/08/22 05:56:00;;;;;;;3.22;2.78;;;;;;;14.71;95.85;101002.50;5017160;28;20080;-82
2021/08/22 05:58:26;;;;;;;3.25;2.80;;;;;;;14.76;92.71;101005.88;5013779;28;20041;-83
2021/08/22 06:00:56;;;;;;;3.60;2.80;;;;;;;14.87;96.98;101004.59;5019939;28;20102;-85
2021/08/22 06:03:24;;;;;;;4.60;3.03;;;;;;;14.96;90.07;101005.22;5002755;28;20041;-87
2021/08/22 06:05:53;;;;;;;4.45;2.60;;;;;;;14.97;91.42;101013.19;5023217;28;20049;-87
2021/08/22 06:08:20;;;;;;;4.25;2.65;;;;;;;15.14;90.59;101010.84;5036046;28;20041;-87
2021/08/22 06:10:47;;;;;;;4.45;3.00;;;;;;;15.15;94.47;101014.38;5014492;28;20553;-82
2021/08/22 06:13:14;;;;;;;4.13;2.40;;;;;;;15.23;91.48;101014.09;5033698;28;20135;-85
2021/08/22 06:15:41;;;;;;;3.00;2.67;;;;;;;15.30;88.21;101008.53;5001821;28;20063;-84
2021/08/22 06:18:08;;;;;;;5.03;2.70;;;;;;;15.34;84.81;101011.94;5017606;28;20502;-83
2021/08/22 06:20:35;;;;;;;5.32;2.78;;;;;;;15.38;87.85;101009.09;5020936;28;20041;-83
2021/08/22 06:23:02;;;;;;;4.47;2.97;;;;;;;15.43;87.07;101000.97;4999678;28;20672;-82
2021/08/22 06:25:32;;;;;;;4.50;2.78;;;;;;;15.56;87.35;101001.41;5020175;28;20065;-83
2021/08/22 06:27:59;;;;;;;4.25;2.90;;;;;;;15.72;84.07;101003.50;5019598;28;20048;-83
2021/08/22 06:30:26;;;;;;;3.40;2.65;;;;;;;16.25;80.36;101005.09;5030548;28;20060;-84
2021/08/22 06:32:53;;;;;;;4.40;2.38;;;;;;;16.99;76.11;101011.06;5008939;28;20510;-85
2021/08/22 06:35:20;;;;;;;3.35;2.22;;;;;;;17.58;73.45;101004.97;4998540;28;20053;-84
2021/08/22 06:37:48;;;;;;;3.20;2.30;;;;;;;17.85;73.35;101002.91;5016848;28;20059;-84
2021/08/22 06:40:15;;;;;;;4.88;2.30;;;;;;;17.99;73.05;101004.03;5001025;28;20087;-83
2021/08/22 06:42:42;;;;;;;3.28;2.15;;;;;;;18.48;70.07;100999.03;5016937;28;20394;-84
2021/08/22 06:45:09;;;;;;;3.97;2.00;;;;;;;18.57;68.05;101001.25;5016712;28;20040;-83
2021/08/22 06:47:36;;;;;;;3.65;2.15;;;;;;;18.83;66.70;101002.72;5005026;28;20033;-83
2021/08/22 06:50:06;;;;;;;3.60;2.17;;;;;;;18.47;66.26;100996.44;5011435;28;20044;-83
2021/08/22 06:52:33;;;;;;;4.60;2.20;;;;;;;18.09;66.96;100995.56;5001406;28;20045;-83
2021/08/22 06:55:00;;;;;;;3.22;2.20;;;;;;;18.65;66.01;101000.94;5016668;28;20136;-83
2021/08/22 06:57:27;;;;;;;2.83;2.10;;;;;;;18.93;64.88;100991.56;5001188;28;20037;-83
2021/08/22 06:59:54;;;;;;;6.10;2.45;;;;;;;19.11;66.76;100990.63;5027191;28;20041;-83
2021/08/22 07:02:21;;;;;;;3.40;2.28;;;;;;;19.18;65.49;100997.41;5012511;28;20049;-83
2021/08/22 07:04:48;;;;;;;2.15;1.85;;;;;;;19.42;65.23;100992.59;4993436;28;20085;-82
2021/08/22 07:07:14;;;;;;;3.20;2.10;;;;;;;18.56;68.22;100994.19;4996142;28;20047;-86
2021/08/22 07:09:42;;;;;;;3.25;2.05;;;;;;;18.76;65.70;100987.03;4999710;28;20541;-81
2021/08/22 07:12:10;;;;;;;2.80;1.73;;;;;;;18.82;65.28;100992.06;5011186;28;20041;-83
2021/08/22 07:14:36;;;;;;;3.97;2.20;;;;;;;18.93;67.89;100988.88;4998382;28;20069;-86
2021/08/22 07:17:06;;;;;;;2.50;1.80;;;;;;;19.13;66.21;100994.94;5003637;28;20037;-86
2021/08/22 07:19:33;;;;;;;2.60;2.28;;;;;;;19.29;63.66;100996.84;5016057;28;20037;-86
2021/08/22 07:22:00;;;;;;;3.35;1.98;;;;;;;19.39;64.51;100993.63;5017069;28;20605;-86
2021/08/22 07:24:27;;;;;;;2.53;1.85;;;;;;;19.05;61.45;100997.16;5002555;28;20045;-85
2021/08/22 07:26:54;;;;;;;2.40;1.90;;;;;;;18.68;64.89;100997.25;4988237;28;20102;-86
2021/08/22 07:29:21;;;;;;;2.80;2.10;;;;;;;18.23;64.05;100993.97;4996308;28;20050;-85
2021/08/22 07:31:48;;;;;;;2.47;2.05;;;;;;;18.37;66.22;100996.00;5014390;28;20047;-85
2021/08/22 07:34:15;;;;;;;3.15;2.55;;;;;;;18.02;66.13;100994.13;5015296;28;20114;-85
2021/08/22 07:36:43;;;;;;;2.75;1.90;;;;;;;18.13;68.40;100992.66;4998460;28;20516;-84
2021/08/22 07:39:13;;;;;;;3.08;1.98;;;;;;;18.38;65.00;100991.53;5001549;28;20514;-88
2021/08/22 07:41:40;;;;;;;3.10;1.65;;;;;;;18.60;65.22;100992.25;4998690;28;20471;-87
2021/08/22 07:44:07;;;;;;;2.42;1.95;;;;;;;18.64;67.79;100992.94;5016065;28;20053;-87
2021/08/22 07:46:34;;;;;;;3.47;2.05;;;;;;;18.67;64.96;100990.16;5016853;28;20041;-86
2021/08/22 07:49:01;;;;;;;2.60;1.80;;;;;;;18.82;66.30;101000.09;4999135;28;20494;-86
2021/08/22 07:51:28;;;;;;;3.75;2.40;;;;;;;18.68;65.65;100998.13;5007776;28;20509;-79
2021/08/22 07:54:01;;;;;;;2.75;2.22;;;;;;;18.78;66.81;100995.84;5015982;28;20098;-80
2021/08/22 07:56:27;;;;;;;2.88;2.15;;;;;;;18.84;65.99;100995.56;5013497;28;20056;-82
2021/08/22 07:58:56;;;;;;;3.58;1.88;;;;;;;18.66;65.39;100994.63;5000202;28;20037;-81
2021/08/22 08:01:23;;;;;;;1.88;1.65;;;;;;;18.64;64.21;100990.25;4997671;28;20090;-85
2021/08/22 08:04:02;;;;;;;2.72;2.00;;;;;;;18.66;66.80;100983.06;5013104;28;20041;-79
2021/08/22 08:10:17;;;;;;;2.50;2.20;;;;;;;18.69;68.85;100978.44;5025152;28;20596;-81
2021/08/22 08:12:45;;;;;;;2.53;2.00;;;;;;;18.67;66.98;100982.13;5013795;28;20049;-82
2021/08/22 08:15:12;;;;;;;2.05;1.77;;;;;;;18.49;65.48;100987.38;4990100;28;20657;-81
2021/08/22 08:17:39;;;;;;;3.33;2.33;;;;;;;18.50;67.30;100982.94;5016285;28;20044;-81
2021/08/22 08:20:06;;;;;;;4.05;2.15;;;;;;;18.50;69.11;100983.78;5011586;28;20525;-81
2021/08/22 08:22:33;;;;;;;2.00;1.75;;;;;;;18.41;69.93;100978.84;5010646;28;20095;-81
2021/08/22 08:24:59;;;;;;;3.65;2.00;;;;;;;18.54;69.94;100974.66;4996560;28;20177;-81
2021/08/22 08:27:26;;;;;;;3.42;2.10;;;;;;;18.45;67.13;100974.25;5030787;28;20073;-82
2021/08/22 08:29:53;;;;;;;3.75;2.28;;;;;;;18.57;69.69;100976.31;5014220;28;20044;-83
2021/08/22 08:32:20;;;;;;;2.80;2.00;;;;;;;18.56;68.00;100979.94;5012312;28;20049;-82
2021/08/22 08:34:48;;;;;;;2.45;2.10;;;;;;;18.61;69.33;100971.69;4998245;28;20169;-81
2021/08/22 08:37:15;;;;;;;2.28;1.92;;;;;;;18.60;69.98;100968.16;4995427;28;20034;-81
2021/08/22 08:39:42;;;;;;;2.45;2.00;;;;;;;18.72;70.02;100964.91;5027238;28;20069;-81
2021/08/22 08:42:34;;;;;;;3.47;2.00;;;;;;;18.31;66.57;100972.22;4998131;28;20109;-82
2021/08/22 08:45:01;;;;;;;3.60;2.00;;;;;;;18.56;69.16;100972.78;5014460;28;20041;-82
2021/08/22 08:47:28;;;;;;;2.50;1.80;;;;;;;18.88;69.72;100972.16;5032788;28;20040;-83
2021/08/22 08:50:02;;;;;;;3.30;1.77;;;;;;;18.98;66.22;100971.63;5013428;28;20176;-82
2021/08/22 08:52:38;;;;;;;2.42;2.08;;;;;;;19.23;68.28;100973.06;5028388;28;20597;-82
2021/08/22 08:55:05;;;;;;;2.78;2.05;;;;;;;19.50;67.22;100974.28;5012617;28;20079;-81
2021/08/22 08:57:34;;;;;;;5.20;2.45;;;;;;;19.56;63.69;100976.69;5013385;28;20033;-83
2021/08/22 09:00:01;;;;;;;3.75;2.00;;;;;;;19.43;64.04;100972.03;4995429;28;20418;-81
2021/08/22 09:02:28;;;;;;;4.25;2.30;;;;;;;19.59;61.51;100972.97;5008682;28;20048;-82
2021/08/22 09:05:02;;;;;;;2.00;1.70;;;;;;;19.90;63.31;100973.06;5013634;28;20041;-82
2021/08/22 09:07:50;;;;;;;2.72;2.00;;;;;;;20.09;60.93;100966.69;5023662;28;20051;-82
2021/08/22 09:10:57;;;;;;;3.42;2.00;;;;;;;20.00;62.50;100973.44;5011581;28;20049;-83
2021/08/22 09:14:11;;;;;;;3.35;2.00;;;;;;;19.92;61.18;100971.16;5017019;28;20518;-81
2021/08/22 09:16:59;;;;;;;2.40;1.63;;;;;;;20.11;62.19;100957.63;4976125;28;20077;-81
2021/08/22 09:19:56;;;;;;;2.50;1.85;;;;;;;20.25;61.79;100959.53;5030771;28;20137;-83
2021/08/22 09:23:21;;;;;;;2.72;2.10;;;;;;;20.78;62.59;100959.22;5031443;28;20109;-82
2021/08/22 09:26:38;;;;;;;2.65;1.80;;;;;;;21.33;61.64;100952.41;5017661;28;20040;-81
2021/08/22 09:29:43;;;;;;;3.08;1.98;;;;;;;21.67;59.52;100956.56;4982745;28;20115;-82
2021/08/22 09:32:44;;;;;;;2.40;1.80;;;;;;;21.67;57.17;100942.25;5010848;28;20063;-82
2021/08/22 09:35:37;;;;;;;3.47;1.80;;;;;;;21.47;55.80;100948.88;5032522;28;20441;-81
2021/08/22 09:38:19;;;;;;;2.13;1.58;;;;;;;21.58;60.40;100943.69;5030540;28;20128;-85
2021/08/22 09:41:07;;;;;;;3.10;1.85;;;;;;;21.55;57.43;100942.06;5013130;28;20136;-84
2021/08/22 09:44:12;;;;;;;3.00;2.20;;;;;;;21.33;58.60;100955.09;5030915;28;20045;-83
2021/08/22 09:47:07;;;;;;;3.38;2.30;;;;;;;21.28;58.26;100955.38;5015603;28;20482;-85
2021/08/22 09:50:07;;;;;;;2.38;1.88;;;;;;;21.34;57.29;100954.13;5009858;28;20045;-83
2021/08/22 09:53:02;;;;;;;2.20;1.98;;;;;;;21.40;57.59;100958.28;5028504;28;20037;-82
2021/08/22 09:55:41;;;;;;;2.47;2.25;;;;;;;21.48;57.95;100939.84;5015102;28;20040;-83
2021/08/22 09:58:42;;;;;;;2.50;2.30;;;;;;;21.45;59.22;100946.28;5021244;28;20048;-82
2021/08/22 10:01:27;;;;;;;6.38;5.70;;;;;;;21.33;55.43;100936.28;5050347;28;20437;-82
2021/08/22 10:04:18;;;;;;;3.20;2.13;;;;;;;21.64;57.40;100933.44;5008042;28;20457;-82
2021/08/22 10:06:47;;;;;;;3.42;2.55;;;;;;;21.75;56.48;100926.50;5013237;28;20045;-81
2021/08/22 10:09:41;;;;;;;2.70;2.33;;;;;;;21.61;55.61;100924.72;5002154;28;20049;-81
2021/08/22 10:12:08;;;;;;;3.00;2.03;;;;;;;21.67;58.02;100916.22;4999042;28;20102;-81
2021/08/22 10:14:39;;;;;;;4.85;3.95;;;;;;;21.76;57.93;100910.28;5017650;28;20099;-82
2021/08/22 10:17:07;;;;;;;3.55;2.30;;;;;;;21.86;57.70;100916.81;5001319;28;20137;-82
2021/08/22 10:19:34;;;;;;;4.18;2.42;;;;;;;21.91;60.02;100911.13;4986198;28;20039;-83
2021/08/22 10:22:12;;;;;;;2.70;2.30;;;;;;;21.89;59.34;100916.63;5008070;28;20045;-82
2021/08/22 10:24:38;;;;;;;2.22;1.98;;;;;;;21.65;60.01;100918.16;5014456;28;20080;-82
2021/08/22 10:27:08;;;;;;;3.00;2.60;;;;;;;21.66;60.14;100922.56;5033378;28;20095;-83
2021/08/22 10:29:48;;;;;;;2.92;2.30;;;;;;;21.62;60.36;100918.38;5016770;28;20053;-82
2021/08/22 10:32:15;;;;;;;4.97;1.95;;;;;;;21.51;60.03;100907.41;5014210;28;20521;-82
2021/08/22 10:34:43;;;;;;;2.72;2.10;;;;;;;21.42;61.61;100911.50;5008084;28;20079;-82
2021/08/22 10:37:29;;;;;;;2.83;2.30;;;;;;;21.54;61.05;100907.22;5022664;28;20455;-82
2021/08/22 10:39:57;;;;;;;2.63;2.35;;;;;;;21.62;62.10;100910.31;5029290;28;20045;-81
2021/08/22 10:42:26;;;;;;;5.07;2.47;;;;;;;21.45;60.30;100907.78;5033355;28;20670;-83
2021/08/22 10:44:54;;;;;;;2.40;2.17;;;;;;;21.51;61.42;100916.31;5000317;28;20073;-83
2021/08/22 10:47:21;;;;;;;3.47;2.10;;;;;;;21.56;60.46;100914.22;5011016;28;20033;-81
2021/08/22 10:49:51;;;;;;;2.33;2.13;;;;;;;21.66;60.49;100917.19;5013305;28;20037;-82
2021/08/22 10:52:22;;;;;;;2.75;2.13;;;;;;;21.75;61.44;100919.31;5017342;28;20135;-82
2021/08/22 10:55:11;;;;;;;3.25;2.03;;;;;;;21.93;60.79;100909.19;5016748;28;20056;-82
2021/08/22 10:57:50;;;;;;;2.92;2.63;;;;;;;22.40;60.55;100903.47;5014522;28;20045;-83
2021/08/22 11:00:26;;;;;;;3.05;2.35;;;;;;;22.33;56.38;100906.66;5013798;28;20144;-81
2021/08/22 11:03:00;;;;;;;4.22;1.95;;;;;;;22.76;57.56;100908.22;5000602;28;20037;-82
2021/08/22 11:05:30;;;;;;;4.25;2.80;;;;;;;22.62;59.75;100900.22;5012556;28;20041;-83
2021/08/22 11:08:11;;;;;;;2.55;2.30;;;;;;;22.68;58.20;100904.31;5009995;28;20075;-83
2021/08/22 11:10:38;;;;;;;3.22;2.08;;;;;;;22.72;57.82;100903.16;5017010;28;20076;-82
2021/08/22 11:13:05;;;;;;;3.60;1.98;;;;;;;22.12;58.55;100903.56;5000983;28;21616;-82
2021/08/22 11:15:32;;;;;;;2.95;1.90;;;;;;;22.04;58.53;100903.16;4997103;28;20041;-82
2021/08/22 11:18:00;;;;;;;4.25;2.28;;;;;;;21.98;61.90;100912.47;5033465;28;20029;-82
2021/08/22 11:20:29;;;;;;;3.22;1.90;;;;;;;22.03;60.04;100909.47;5028237;28;20069;-83
2021/08/22 11:23:07;;;;;;;3.05;1.92;;;;;;;21.96;61.95;100906.34;5003347;28;20079;-84
2021/08/22 11:25:35;;;;;;;2.10;1.90;;;;;;;21.73;60.81;100907.78;5018013;28;20069;-83
2021/08/22 11:28:10;;;;;;;3.13;2.10;;;;;;;21.58;60.19;100908.75;5023745;28;20037;-84
2021/08/22 11:30:38;;;;;;;3.28;2.30;;;;;;;21.47;61.38;100913.94;5014251;28;20131;-83
2021/08/22 11:33:05;;;;;;;2.47;2.00;;;;;;;21.41;61.93;100912.47;5027220;28;20049;-84
2021/08/22 11:35:37;;;;;;;5.03;2.63;;;;;;;21.28;61.81;100917.75;4997683;28;20114;-83
2021/08/22 11:38:05;;;;;;;3.10;2.42;;;;;;;21.08;60.75;100918.03;5001790;28;20037;-82
2021/08/22 11:40:33;;;;;;;3.67;2.30;;;;;;;20.57;61.56;100922.84;5015252;28;20037;-83